EmailTwitter


Observations de surface / France / LFMK (07635)

Régions: Québec | Canada | États-Unis | Europe | France | UK | Ailleurs
Station
Affichage
Infos & localisation pour LFMK (07635) | Aide pour décoder les METARs

Observations prises le 2018-06-21 à 04H30 UTC à CARCASSONNE/SALV, FR (LFMK)

Température: 16.0 Celsius

Point de rosée: 14.0 Celsius

Humidité relative: 88%

Vents: Variable à 4 km/h ou 2 noeuds.

Pression au niveau moyen de la mer: 101.80 kilopascals.

Observation METAR:

LFMK 210430Z AUTO VRB02KT CAVOK 16/14 Q1018 BECMG 28012KT =